LIRLLFMN

Guest
Details From LIRL - Latina
To LFMN - Nice Cote D Azur
Flight Number -
Tags Generated
Created
Modified
Stats Distance 282 nm / 522 km
Max Altitude 0 ft / 0 m
Waypoints 3
Social Downloads 1
Likes 0
Share VATSIM

Download

Looking for another format? Having issues loading an existing format? Contact us
Advertisement - Login to hide

Notes

Generated

Route

LIRL MN044 LFMN

ID Type Via Altitude Latitude Longitude Leg Dist Tot Dist Heading (true) Name
O LIRL APT - 0 ft / 0 m 41.54676˚ 12.90065˚ - 0 nm - -
MN044 FIX - 0 ft / 0 m 43.59869˚ 7.34208˚ 274 nm 274 nm 298° / 295° -
O LFMN APT - 0 ft / 0 m 43.64661˚ 7.20258˚ 6 nm 281 nm 295° / 295° -

Altitude Profile

Advertisement - Login to hide

Weather


0- 5 10 15 20 25 30 35+ Temperature / ° C

Clouds and Precipitation
Forecast for 2018-05-26 06:00 UTC. Updated 3 hours ago

Ground ~20,000 ft ~40,000 ft Winds

LIRL

Details ICAO LIRL (QLT)
Name LATINA
Region Italy
Timezone Europe/Rome (UTC+2.0)
Stats Elevation 93 ft / 28 m (AMSL)
Location 41.542436° 12.909019°
Runways 1
Magnetic Variation 3.148° E

METAR

LIRL 260755Z 07002KT 9999 FEW020 24/20 Q1017

Decode

TAF

Not found

Departure Runways

ID Width Length Bearing (true) Bearing (mag) Surface Threshold Offset Overrun Length
12 131 ft / 40 m 5,557 ft / 1,694 m 124.64° 121.49° Asphalt 0 ft / 0 m 174 ft / 53 m
30 131 ft / 40 m 5,557 ft / 1,694 m 304.65° 301.50° Asphalt 0 ft / 0 m 413 ft / 126 m

LFMN

Details ICAO LFMN (NCE)
Name Nice/Cote d'Azur
Region France
Timezone Unknown (UTC+0.0)
Stats Elevation 12 ft / 4 m (AMSL)
Location 43.657981° 7.215362°
Runways 2
Magnetic Variation 2.066° E

METAR

LFMN 260830Z 13003KT CAVOK 22/16 Q1019 NOSIG

Decode

TAF

TAF TAF LFMN 260800Z 2609/2715 16010KT CAVOK BECMG 2619/2621 34010KT BECMG 2707/2709 09010KT

Decode

Destination Runways

ID Width Length Bearing (true) Bearing (mag) Surface Threshold Offset Overrun Length
04L 148 ft / 45 m 8,427 ft / 2,569 m 44.85° 42.78° Asphalt 0 ft / 0 m 131 ft / 40 m
04R 148 ft / 45 m 9,720 ft / 2,963 m 44.60° 42.53° Asphalt 0 ft / 0 m 427 ft / 130 m
22L 148 ft / 45 m 9,720 ft / 2,963 m 224.62° 222.55° Asphalt 0 ft / 0 m 525 ft / 160 m
22R 148 ft / 45 m 8,427 ft / 2,569 m 224.87° 222.80° Asphalt 0 ft / 0 m 492 ft / 150 m

Approach Navaids

Runway Type Ident Frequency Range Bearing (true) Bearing (mag) Slope Elevation
04L Localiser NI 109.95 MHz 27 nm / 50 km 44.90° 42.83° - 12 ft / 4 m (AMSL)
04L Glidescope NI 109.95 MHz 27 nm / 50 km 44.90° 42.83° 3.00° 12 ft / 4 m (AMSL)
04L DME NI 109.95 MHz 27 nm / 50 km - - - 12 ft / 4 m (AMSL)
04R Localiser NA 110.70 MHz 27 nm / 50 km 42.00° 39.93° - 12 ft / 4 m (AMSL)
04R Glidescope NA 110.70 MHz 27 nm / 50 km 42.00° 39.93° 3.00° 12 ft / 4 m (AMSL)
04R DME NA 110.70 MHz 27 nm / 50 km - - - 12 ft / 4 m (AMSL)